createdAt,value
2018-02-02T00:00:02.275Z,0.00
2018-02-02T00:01:02.233Z,0.00
2018-02-02T00:02:02.332Z,0.00
2018-02-02T00:03:02.153Z,0.00
2018-02-02T00:04:02.370Z,0.00
2018-02-02T00:05:02.072Z,0.00
2018-02-02T00:06:02.034Z,0.00
2018-02-02T00:07:02.032Z,0.00
2018-02-02T00:08:01.952Z,0.00
2018-02-02T00:09:02.069Z,0.00
2018-02-02T00:10:01.869Z,0.00
2018-02-02T00:11:01.828Z,0.00
2018-02-02T00:12:01.823Z,0.00
2018-02-02T00:13:01.747Z,0.00
2018-02-02T00:14:01.874Z,0.00
2018-02-02T00:15:01.666Z,0.00
2018-02-02T00:16:01.626Z,0.00
2018-02-02T00:17:01.714Z,0.00
2018-02-02T00:18:01.545Z,0.00
2018-02-02T00:19:01.681Z,0.00
2018-02-02T00:20:01.464Z,0.00
2018-02-02T00:21:01.423Z,0.00
2018-02-02T00:22:01.443Z,0.00
2018-02-02T00:23:01.343Z,0.00
2018-02-02T00:24:01.489Z,0.00
2018-02-02T00:25:01.261Z,0.00
2018-02-02T00:26:01.219Z,0.00
2018-02-02T00:27:01.270Z,0.00
2018-02-02T00:28:01.139Z,0.00
2018-02-02T00:29:01.284Z,0.00
2018-02-02T00:30:01.057Z,0.00
2018-02-02T00:31:01.018Z,0.00
2018-02-02T00:32:01.019Z,0.00
2018-02-02T00:33:00.936Z,0.00
2018-02-02T00:34:01.092Z,0.00
2018-02-02T00:35:00.893Z,0.00
2018-02-02T00:36:00.815Z,0.00
2018-02-02T00:37:00.825Z,0.00
2018-02-02T00:38:00.733Z,0.00
2018-02-02T00:39:00.898Z,0.00
2018-02-02T00:40:00.651Z,0.00
2018-02-02T00:41:00.615Z,0.00
2018-02-02T00:42:00.652Z,0.00
2018-02-02T00:43:00.531Z,0.00
2018-02-02T00:44:00.685Z,0.00
2018-02-02T00:45:00.453Z,0.00
2018-02-02T00:46:00.408Z,0.00
2018-02-02T00:47:00.482Z,0.00
2018-02-02T00:48:00.325Z,0.00
2018-02-02T00:49:00.492Z,0.00
2018-02-02T00:50:00.244Z,0.00
2018-02-02T00:51:00.204Z,0.00
2018-02-02T00:52:00.194Z,0.00
2018-02-02T00:53:00.123Z,0.00
2018-02-02T00:54:00.299Z,0.00
2018-02-02T00:55:00.044Z,0.00
2018-02-02T00:55:59.997Z,0.00
2018-02-02T00:57:00.038Z,0.00
2018-02-02T00:57:59.924Z,0.00
2018-02-02T00:59:00.117Z,0.00
2018-02-02T00:59:59.838Z,0.00
2018-02-02T01:00:59.796Z,0.00
2018-02-02T01:01:59.902Z,0.00
2018-02-02T01:02:59.715Z,0.00
2018-02-02T01:03:59.909Z,0.00
2018-02-02T01:04:59.635Z,0.00
2018-02-02T01:05:59.597Z,0.00
2018-02-02T01:06:59.591Z,0.00
2018-02-02T01:07:59.513Z,0.00
2018-02-02T01:08:59.749Z,0.00
2018-02-02T01:09:59.434Z,0.00
2018-02-02T01:10:59.390Z,0.00
2018-02-02T01:11:59.383Z,0.00
2018-02-02T01:12:59.309Z,0.00
2018-02-02T01:13:59.534Z,0.00
2018-02-02T01:14:59.228Z,0.00
2018-02-02T01:15:59.191Z,0.00
2018-02-02T01:16:59.190Z,0.00
2018-02-02T01:17:59.108Z,0.00
2018-02-02T01:18:59.322Z,0.00
2018-02-02T01:19:59.026Z,0.00
2018-02-02T01:20:58.984Z,0.00
2018-02-02T01:21:58.985Z,0.00
2018-02-02T01:22:58.905Z,0.00
2018-02-02T01:23:59.018Z,0.00
2018-02-02T01:24:58.823Z,0.00
2018-02-02T01:25:58.778Z,0.00
2018-02-02T01:26:58.804Z,0.00
2018-02-02T01:27:58.700Z,0.00
2018-02-02T01:28:58.835Z,0.00
2018-02-02T01:29:58.621Z,0.00
2018-02-02T01:30:58.579Z,0.00
2018-02-02T01:31:58.568Z,0.00
2018-02-02T01:32:58.498Z,0.00
2018-02-02T01:33:58.624Z,0.00
2018-02-02T01:34:58.418Z,0.00
2018-02-02T01:35:58.375Z,0.00
2018-02-02T01:36:58.460Z,0.00
2018-02-02T01:37:58.296Z,0.00
2018-02-02T01:38:58.436Z,0.00
2018-02-02T01:39:58.213Z,0.00
2018-02-02T01:40:58.178Z,0.00
2018-02-02T01:41:58.172Z,0.00
2018-02-02T01:42:58.090Z,0.00
2018-02-02T01:43:58.327Z,0.00
2018-02-02T01:44:58.011Z,0.00
2018-02-02T01:45:57.970Z,0.00
2018-02-02T01:46:59.041Z,0.00
2018-02-02T01:47:57.888Z,0.00
2018-02-02T01:48:58.047Z,0.00
2018-02-02T01:49:57.807Z,0.00
2018-02-02T01:50:57.766Z,0.00
2018-02-02T01:51:57.757Z,0.00
2018-02-02T01:52:57.688Z,0.00
2018-02-02T01:53:57.844Z,0.00
2018-02-02T01:54:57.604Z,0.00
2018-02-02T01:55:57.563Z,0.00
2018-02-02T01:56:57.572Z,0.00
2018-02-02T01:57:57.483Z,0.00
2018-02-02T01:58:57.638Z,0.00
2018-02-02T01:59:57.403Z,0.00
2018-02-02T02:00:57.366Z,0.00
2018-02-02T02:01:57.400Z,0.00
2018-02-02T02:02:57.278Z,0.00
2018-02-02T02:03:57.455Z,0.00
2018-02-02T02:04:57.200Z,0.00
2018-02-02T02:05:57.159Z,0.00
2018-02-02T02:06:57.159Z,0.00
2018-02-02T02:07:57.078Z,0.00
2018-02-02T02:08:57.241Z,0.00
2018-02-02T02:09:56.997Z,0.00
2018-02-02T02:10:56.955Z,0.00
2018-02-02T02:11:56.915Z,0.00
2018-02-02T02:12:56.874Z,0.00
2018-02-02T02:13:57.059Z,0.00
2018-02-02T02:14:56.792Z,0.00
2018-02-02T02:15:56.751Z,0.00
2018-02-02T02:16:56.786Z,0.00
2018-02-02T02:17:56.669Z,0.00
2018-02-02T02:18:56.856Z,0.00
2018-02-02T02:19:56.590Z,0.00
2018-02-02T02:20:56.551Z,0.00
2018-02-02T02:21:56.612Z,0.00
2018-02-02T02:22:56.466Z,0.00
2018-02-02T02:23:56.665Z,0.00
2018-02-02T02:24:56.387Z,0.00
2018-02-02T02:25:56.347Z,0.00
2018-02-02T02:26:56.439Z,0.00
2018-02-02T02:27:56.269Z,0.00
2018-02-02T02:28:56.479Z,0.00
2018-02-02T02:29:56.185Z,0.00
2018-02-02T02:30:56.142Z,0.00
2018-02-02T02:31:56.142Z,0.00
2018-02-02T02:32:56.065Z,0.00
2018-02-02T02:33:56.274Z,0.00
2018-02-02T02:34:55.981Z,0.00
2018-02-02T02:35:55.939Z,0.00
2018-02-02T02:36:57.019Z,0.00
2018-02-02T02:37:55.858Z,0.00
2018-02-02T02:38:56.082Z,0.00
2018-02-02T02:39:55.777Z,0.00
2018-02-02T02:40:55.737Z,0.00
2018-02-02T02:41:55.727Z,0.00
2018-02-02T02:42:55.655Z,0.00
2018-02-02T02:43:55.777Z,0.00
2018-02-02T02:44:55.573Z,0.00
2018-02-02T02:45:55.534Z,0.00
2018-02-02T02:46:55.549Z,0.00
2018-02-02T02:47:55.452Z,0.00
2018-02-02T02:48:55.584Z,0.00
2018-02-02T02:49:55.371Z,0.00
2018-02-02T02:50:55.329Z,0.00
2018-02-02T02:51:55.378Z,0.00
2018-02-02T02:52:55.248Z,0.00
2018-02-02T02:53:55.390Z,0.00
2018-02-02T02:54:55.166Z,0.00
2018-02-02T02:55:55.125Z,0.00
2018-02-02T02:56:55.126Z,0.00
2018-02-02T02:57:55.043Z,0.00
2018-02-02T02:58:55.193Z,0.00
2018-02-02T02:59:54.961Z,0.00
2018-02-02T03:00:54.921Z,0.00
2018-02-02T03:01:54.934Z,0.00
2018-02-02T03:02:54.839Z,0.00
2018-02-02T03:03:54.984Z,0.00
2018-02-02T03:04:54.759Z,0.00
2018-02-02T03:05:54.718Z,0.00
2018-02-02T03:06:54.761Z,0.00
2018-02-02T03:07:54.635Z,0.00
2018-02-02T03:08:54.800Z,0.00
2018-02-02T03:09:54.556Z,0.00
2018-02-02T03:10:54.508Z,0.00
2018-02-02T03:11:54.507Z,0.00
2018-02-02T03:12:54.433Z,0.00
2018-02-02T03:13:54.593Z,0.00
2018-02-02T03:14:54.350Z,0.00
2018-02-02T03:15:54.309Z,0.00
2018-02-02T03:16:54.316Z,0.00
2018-02-02T03:17:54.228Z,0.00
2018-02-02T03:18:54.394Z,0.00
2018-02-02T03:19:54.152Z,0.00
2018-02-02T03:20:54.106Z,0.00
2018-02-02T03:21:54.146Z,0.00
2018-02-02T03:22:54.024Z,0.00
2018-02-02T03:23:54.208Z,0.00
2018-02-02T03:24:53.944Z,0.00
2018-02-02T03:25:53.902Z,0.00
2018-02-02T03:26:53.973Z,0.00
2018-02-02T03:27:53.819Z,0.00
2018-02-02T03:28:54.005Z,0.00
2018-02-02T03:29:53.739Z,0.00
2018-02-02T03:30:53.701Z,0.00
2018-02-02T03:31:53.688Z,0.00
2018-02-02T03:32:53.618Z,0.00
2018-02-02T03:33:53.799Z,0.00
2018-02-02T03:34:53.533Z,0.00
2018-02-02T03:35:53.494Z,0.00
2018-02-02T03:36:53.533Z,0.00
2018-02-02T03:37:53.421Z,0.00
2018-02-02T03:38:53.612Z,0.00
2018-02-02T03:39:53.333Z,0.00
2018-02-02T03:40:53.287Z,0.00
2018-02-02T03:41:53.357Z,0.00
2018-02-02T03:42:53.209Z,0.00
2018-02-02T03:43:53.410Z,0.00
2018-02-02T03:44:53.130Z,0.00
2018-02-02T03:45:53.094Z,0.00
2018-02-02T03:46:53.086Z,0.00
2018-02-02T03:47:53.009Z,0.00
2018-02-02T03:48:53.219Z,0.00
2018-02-02T03:49:52.925Z,0.00
2018-02-02T03:50:52.883Z,0.00
2018-02-02T03:51:52.872Z,0.00
2018-02-02T03:52:52.804Z,0.00
2018-02-02T03:53:53.026Z,0.00
2018-02-02T03:54:52.721Z,0.00
2018-02-02T03:55:52.681Z,0.00
2018-02-02T03:56:52.741Z,0.00
2018-02-02T03:57:52.597Z,0.00
2018-02-02T03:58:52.712Z,0.00
2018-02-02T03:59:52.518Z,0.00
2018-02-02T04:00:52.475Z,0.00
2018-02-02T04:01:52.570Z,0.00
2018-02-02T04:02:52.394Z,0.00
2018-02-02T04:03:52.512Z,0.00
2018-02-02T04:04:52.313Z,0.00
2018-02-02T04:05:52.274Z,0.00
2018-02-02T04:06:52.294Z,0.00
2018-02-02T04:07:52.192Z,0.00
2018-02-02T04:08:52.333Z,0.00
2018-02-02T04:09:52.112Z,0.00
2018-02-02T04:10:52.070Z,0.00
2018-02-02T04:11:52.070Z,0.00
2018-02-02T04:12:51.989Z,0.00
2018-02-02T04:13:52.143Z,0.00
2018-02-02T04:14:51.908Z,0.00
2018-02-02T04:15:51.866Z,0.00
2018-02-02T04:16:51.953Z,0.00
2018-02-02T04:17:51.787Z,0.00
2018-02-02T04:18:51.928Z,0.00
2018-02-02T04:19:51.707Z,0.00
2018-02-02T04:20:51.664Z,0.00
2018-02-02T04:21:51.678Z,0.00
2018-02-02T04:22:51.582Z,0.00
2018-02-02T04:23:51.741Z,0.00
2018-02-02T04:24:51.503Z,0.00
2018-02-02T04:25:51.459Z,0.00
2018-02-02T04:26:51.508Z,0.00
2018-02-02T04:27:51.378Z,0.00
2018-02-02T04:28:51.558Z,0.00
2018-02-02T04:29:51.300Z,0.00
2018-02-02T04:30:51.257Z,0.00
2018-02-02T04:31:51.256Z,0.00
2018-02-02T04:32:51.176Z,0.00
2018-02-02T04:33:51.357Z,0.00
2018-02-02T04:34:51.094Z,0.00
2018-02-02T04:35:51.054Z,0.00
2018-02-02T04:36:51.064Z,0.00
2018-02-02T04:37:50.977Z,0.00
2018-02-02T04:38:51.152Z,0.00
2018-02-02T04:39:50.893Z,0.00
2018-02-02T04:40:50.850Z,0.00
2018-02-02T04:41:50.894Z,0.00
2018-02-02T04:42:50.769Z,0.00
2018-02-02T04:43:50.942Z,0.00
2018-02-02T04:44:50.694Z,0.00
2018-02-02T04:45:50.648Z,0.00
2018-02-02T04:46:50.719Z,0.00
2018-02-02T04:47:50.567Z,0.00
2018-02-02T04:48:50.757Z,0.00
2018-02-02T04:49:50.484Z,0.00
2018-02-02T04:50:50.443Z,0.00
2018-02-02T04:51:50.436Z,0.00
2018-02-02T04:52:50.361Z,0.00
2018-02-02T04:53:50.571Z,0.00
2018-02-02T04:54:50.283Z,0.00
2018-02-02T04:55:50.241Z,0.00
2018-02-02T04:56:50.243Z,0.00
2018-02-02T04:57:50.158Z,0.00
2018-02-02T04:58:50.371Z,0.00
2018-02-02T04:59:50.077Z,0.00
2018-02-02T05:00:50.037Z,0.00
2018-02-02T05:01:50.103Z,0.00
2018-02-02T05:02:49.956Z,0.00
2018-02-02T05:03:50.179Z,0.00
2018-02-02T05:04:49.875Z,0.00
2018-02-02T05:05:49.835Z,0.00
2018-02-02T05:06:49.930Z,0.00
2018-02-02T05:07:49.758Z,0.00
2018-02-02T05:08:49.963Z,0.00
2018-02-02T05:09:49.672Z,0.00
2018-02-02T05:10:49.634Z,0.00
2018-02-02T05:11:49.618Z,0.00
2018-02-02T05:12:49.552Z,0.00
2018-02-02T05:13:49.672Z,0.00
2018-02-02T05:14:49.469Z,0.00
2018-02-02T05:15:49.429Z,0.00
2018-02-02T05:16:49.488Z,0.00
2018-02-02T05:17:49.348Z,0.00
2018-02-02T05:18:49.483Z,0.00
2018-02-02T05:19:49.262Z,0.00
2018-02-02T05:20:49.229Z,0.00
2018-02-02T05:21:49.227Z,0.00
2018-02-02T05:22:49.144Z,0.00
2018-02-02T05:23:49.264Z,0.00
2018-02-02T05:24:49.064Z,0.00
2018-02-02T05:25:49.021Z,0.00
2018-02-02T05:26:49.041Z,0.00
2018-02-02T05:27:48.942Z,0.00
2018-02-02T05:28:49.076Z,0.00
2018-02-02T05:29:48.864Z,0.00
2018-02-02T05:30:48.819Z,0.00
2018-02-02T05:31:48.812Z,0.00
2018-02-02T05:32:48.748Z,0.00
2018-02-02T05:33:48.906Z,0.00
2018-02-02T05:34:48.658Z,0.00
2018-02-02T05:35:48.621Z,0.00
2018-02-02T05:36:48.701Z,0.00
2018-02-02T05:37:48.539Z,0.00
2018-02-02T05:38:48.695Z,0.00
2018-02-02T05:39:48.458Z,0.00
2018-02-02T05:40:48.416Z,0.00
2018-02-02T05:41:50.471Z,0.00
2018-02-02T05:42:48.335Z,0.00
2018-02-02T05:43:48.499Z,0.00
2018-02-02T05:44:48.256Z,0.00
2018-02-02T05:45:48.215Z,0.00
2018-02-02T05:46:48.217Z,0.00
2018-02-02T05:47:48.134Z,0.00
2018-02-02T05:48:48.308Z,0.00
2018-02-02T05:49:48.054Z,0.00
2018-02-02T05:50:48.014Z,0.00
2018-02-02T05:51:47.978Z,0.00
2018-02-02T05:52:47.933Z,0.00
2018-02-02T05:53:48.100Z,0.00
2018-02-02T05:54:47.852Z,0.00
2018-02-02T05:55:47.812Z,0.00
2018-02-02T05:56:47.811Z,0.00
2018-02-02T05:57:47.734Z,0.00
2018-02-02T05:58:47.894Z,0.00
2018-02-02T05:59:47.653Z,0.00
2018-02-02T06:00:47.610Z,0.00
2018-02-02T06:01:47.593Z,0.00
2018-02-02T06:02:47.528Z,0.00
2018-02-02T06:03:47.712Z,0.00
2018-02-02T06:04:47.449Z,0.00
2018-02-02T06:05:47.409Z,0.00
2018-02-02T06:06:47.444Z,0.00
2018-02-02T06:07:47.335Z,0.00
2018-02-02T06:08:47.289Z,0.00
2018-02-02T06:09:47.251Z,0.00
2018-02-02T06:10:47.211Z,0.00
2018-02-02T06:11:47.168Z,0.00
2018-02-02T06:12:47.127Z,0.00
2018-02-02T06:13:47.087Z,0.00
2018-02-02T06:14:47.049Z,0.00
2018-02-02T06:15:47.006Z,0.00
2018-02-02T06:16:46.961Z,0.00
2018-02-02T06:17:46.926Z,0.00
2018-02-02T06:18:46.885Z,0.00
2018-02-02T06:19:46.845Z,0.00
2018-02-02T06:20:46.804Z,0.00
2018-02-02T06:21:46.765Z,0.00
2018-02-02T06:22:46.743Z,0.00
2018-02-02T06:23:46.687Z,0.00
2018-02-02T06:24:46.828Z,0.00
2018-02-02T06:25:46.604Z,0.00
2018-02-02T06:26:46.572Z,0.00
2018-02-02T06:27:46.525Z,0.00
2018-02-02T06:28:46.484Z,0.00
2018-02-02T06:29:46.448Z,0.00
2018-02-02T06:30:46.407Z,0.00
2018-02-02T06:31:46.368Z,0.00
2018-02-02T06:32:46.324Z,0.00
2018-02-02T06:33:46.290Z,0.00
2018-02-02T06:34:46.248Z,0.00
2018-02-02T06:35:46.348Z,0.00
2018-02-02T06:36:46.169Z,0.00
2018-02-02T06:37:46.125Z,0.00
2018-02-02T06:38:46.083Z,0.00
2018-02-02T06:39:46.041Z,0.00
2018-02-02T06:40:46.001Z,0.00
2018-02-02T06:41:45.967Z,0.00
2018-02-02T06:42:45.962Z,0.00
2018-02-02T06:43:45.882Z,0.00
2018-02-02T06:44:45.839Z,0.00
2018-02-02T06:45:45.805Z,0.00
2018-02-02T06:46:45.765Z,0.00
2018-02-02T06:47:45.723Z,0.00
2018-02-02T06:48:45.691Z,0.00
2018-02-02T06:49:45.638Z,0.00
2018-02-02T06:50:45.604Z,0.00
2018-02-02T06:51:45.566Z,0.00
2018-02-02T06:52:45.532Z,5.63
2018-02-02T06:53:45.740Z,5.63
2018-02-02T06:54:45.438Z,5.63
2018-02-02T06:55:45.397Z,5.63
2018-02-02T06:56:45.367Z,5.63
2018-02-02T06:57:45.432Z,5.63
2018-02-02T06:58:45.276Z,5.63
2018-02-02T06:59:45.242Z,5.63
2018-02-02T07:00:45.208Z,5.63
2018-02-02T07:01:45.158Z,5.63
2018-02-02T07:02:45.118Z,5.63
2018-02-02T07:03:45.084Z,11.25
2018-02-02T07:04:45.044Z,11.25
2018-02-02T07:05:44.997Z,11.25
2018-02-02T07:06:44.958Z,11.25
2018-02-02T07:07:44.921Z,11.25
2018-02-02T07:08:44.879Z,11.25
2018-02-02T07:09:44.840Z,11.25
2018-02-02T07:10:44.798Z,11.25
2018-02-02T07:11:44.758Z,11.25
2018-02-02T07:12:44.721Z,16.88
2018-02-02T07:13:44.687Z,16.88
2018-02-02T07:14:44.637Z,16.88
2018-02-02T07:15:44.595Z,16.88
2018-02-02T07:16:44.559Z,16.88
2018-02-02T07:17:44.527Z,16.88
2018-02-02T07:18:44.484Z,16.88
2018-02-02T07:19:44.437Z,22.50
2018-02-02T07:20:44.662Z,22.50
2018-02-02T07:21:44.367Z,22.50
2018-02-02T07:22:44.319Z,22.50
2018-02-02T07:23:44.280Z,22.50
2018-02-02T07:24:44.239Z,22.50
2018-02-02T07:25:44.205Z,22.50
2018-02-02T07:26:44.159Z,28.13
2018-02-02T07:27:44.120Z,28.13
2018-02-02T07:28:44.079Z,28.13
2018-02-02T07:29:44.039Z,28.13
2018-02-02T07:30:44.004Z,28.13
2018-02-02T07:31:43.960Z,28.13
2018-02-02T07:32:43.920Z,33.75
2018-02-02T07:33:43.888Z,33.75
2018-02-02T07:34:43.842Z,33.75
2018-02-02T07:35:43.799Z,33.75
2018-02-02T07:36:43.758Z,33.75
2018-02-02T07:37:43.720Z,33.75
2018-02-02T07:38:43.687Z,33.75
2018-02-02T07:39:43.638Z,33.75
2018-02-02T07:40:43.607Z,39.38
2018-02-02T07:41:43.564Z,39.38
2018-02-02T07:42:43.524Z,39.38
2018-02-02T07:43:43.488Z,39.38
2018-02-02T07:44:43.496Z,39.38
2018-02-02T07:45:43.404Z,39.38
2018-02-02T07:46:43.363Z,45.00
2018-02-02T07:47:43.574Z,45.00
2018-02-02T07:48:43.290Z,45.00
2018-02-02T07:49:43.245Z,45.00
2018-02-02T07:50:43.212Z,45.00
2018-02-02T07:51:43.170Z,45.00
2018-02-02T07:52:43.130Z,45.00
2018-02-02T07:53:43.090Z,45.00
2018-02-02T07:54:43.061Z,45.00
2018-02-02T07:55:43.009Z,45.00
2018-02-02T07:56:42.964Z,50.63
2018-02-02T07:57:42.931Z,50.63
2018-02-02T07:58:42.890Z,50.63
2018-02-02T07:59:42.852Z,56.25
2018-02-02T08:00:42.819Z,56.25
2018-02-02T08:01:42.774Z,56.25
2018-02-02T08:02:42.735Z,56.25
2018-02-02T08:03:42.694Z,56.25
2018-02-02T08:04:42.657Z,56.25
2018-02-02T08:05:42.615Z,50.63
2018-02-02T08:06:42.574Z,56.25
2018-02-02T08:07:42.537Z,56.25
2018-02-02T08:08:42.503Z,56.25
2018-02-02T08:09:42.457Z,50.63
2018-02-02T08:10:42.412Z,50.63
2018-02-02T08:11:42.373Z,56.25
2018-02-02T08:12:42.331Z,56.25
2018-02-02T08:13:42.292Z,56.25
2018-02-02T08:14:42.251Z,61.88
2018-02-02T08:15:42.209Z,61.88
2018-02-02T08:16:42.176Z,61.88
2018-02-02T08:17:42.136Z,67.50
2018-02-02T08:18:42.107Z,78.75
2018-02-02T08:19:42.063Z,84.38
2018-02-02T08:20:42.017Z,84.38
2018-02-02T08:21:41.993Z,84.38
2018-02-02T08:22:41.946Z,84.38
2018-02-02T08:23:41.905Z,84.38
2018-02-02T08:24:41.866Z,84.38
2018-02-02T08:25:41.827Z,84.38
2018-02-02T08:26:41.789Z,78.75
2018-02-02T08:27:41.747Z,73.13
2018-02-02T08:28:41.708Z,73.13
2018-02-02T08:29:41.671Z,73.13
2018-02-02T08:30:42.240Z,73.13
2018-02-02T08:31:41.584Z,73.13
2018-02-02T08:32:41.554Z,73.13
2018-02-02T08:33:41.543Z,73.13
2018-02-02T08:34:41.472Z,67.50
2018-02-02T08:37:11.983Z,61.88
2018-02-02T08:38:11.917Z,61.88
2018-02-02T08:40:03.745Z,61.88
2018-02-02T08:41:03.679Z,67.50
2018-02-02T08:42:55.481Z,67.50
2018-02-02T08:43:55.435Z,67.50
2018-02-02T08:45:47.257Z,73.13
2018-02-02T08:46:47.200Z,67.50
2018-02-02T08:48:39.853Z,67.50
2018-02-02T08:49:39.613Z,67.50
2018-02-02T08:51:31.258Z,67.50
2018-02-02T08:52:31.191Z,73.13
2018-02-02T08:54:23.018Z,73.13
2018-02-02T08:55:22.953Z,73.13
2018-02-02T08:57:14.773Z,73.13
2018-02-02T08:58:14.710Z,67.50
2018-02-02T09:00:06.512Z,61.88
2018-02-02T09:01:06.466Z,67.50
2018-02-02T09:02:58.300Z,67.50
2018-02-02T09:03:58.228Z,61.88
2018-02-02T09:05:50.048Z,67.50
2018-02-02T09:06:49.987Z,67.50
2018-02-02T09:08:41.824Z,67.50
2018-02-02T09:09:41.760Z,73.13
2018-02-02T09:11:33.565Z,73.13
2018-02-02T09:12:33.516Z,73.13
2018-02-02T09:14:25.343Z,67.50
2018-02-02T09:15:25.270Z,67.50
2018-02-02T09:17:17.122Z,73.13
2018-02-02T09:18:17.031Z,73.13
2018-02-02T09:20:08.834Z,61.88
2018-02-02T09:21:08.788Z,61.88
2018-02-02T09:23:00.870Z,56.25
2018-02-02T09:24:00.541Z,50.63
2018-02-02T09:25:52.393Z,56.25
2018-02-02T09:26:52.301Z,56.25
2018-02-02T09:28:44.142Z,56.25
2018-02-02T09:29:44.079Z,61.88
2018-02-02T09:31:35.880Z,67.50
2018-02-02T09:32:35.836Z,73.13
2018-02-02T09:34:27.660Z,73.13
2018-02-02T09:35:27.595Z,73.13
2018-02-02T09:37:19.656Z,73.13
2018-02-02T09:38:19.353Z,73.13
2018-02-02T09:40:11.177Z,78.75
2018-02-02T09:41:11.113Z,84.38
2018-02-02T09:43:02.922Z,84.38
2018-02-02T09:44:02.873Z,90.00
2018-02-02T09:45:54.698Z,90.00
2018-02-02T09:46:54.630Z,101.25
2018-02-02T09:48:46.441Z,106.88
2018-02-02T09:49:46.395Z,101.25
2018-02-02T09:51:38.218Z,90.00
2018-02-02T09:52:38.153Z,95.63
2018-02-02T09:54:29.962Z,95.63
2018-02-02T09:55:29.918Z,90.00
2018-02-02T09:57:21.743Z,84.38
2018-02-02T09:58:21.682Z,78.75
2018-02-02T10:00:13.503Z,73.13
2018-02-02T10:01:13.446Z,73.13
2018-02-02T10:03:05.269Z,73.13
2018-02-02T10:04:05.205Z,73.13
2018-02-02T10:05:57.082Z,78.75
2018-02-02T10:06:56.980Z,73.13
2018-02-02T10:08:48.826Z,73.13
2018-02-02T10:09:48.753Z,67.50
2018-02-02T10:11:40.577Z,67.50
2018-02-02T10:12:40.512Z,78.75
2018-02-02T10:14:32.340Z,73.13
2018-02-02T10:15:32.280Z,67.50
2018-02-02T10:17:24.113Z,61.88
2018-02-02T10:18:24.042Z,61.88
2018-02-02T10:20:15.845Z,61.88
2018-02-02T10:21:15.798Z,61.88
2018-02-02T10:23:07.626Z,67.50
2018-02-02T10:24:07.558Z,61.88
2018-02-02T10:25:59.359Z,61.88
2018-02-02T10:26:59.316Z,67.50
2018-02-02T10:28:51.150Z,67.50
2018-02-02T10:29:51.089Z,73.13
2018-02-02T10:31:43.514Z,67.50
2018-02-02T10:32:42.849Z,61.88
2018-02-02T10:34:35.260Z,56.25
2018-02-02T10:35:34.807Z,61.88
2018-02-02T10:37:26.620Z,61.88
2018-02-02T10:38:26.563Z,67.50
2018-02-02T10:40:18.367Z,73.13
2018-02-02T10:41:18.479Z,73.13
2018-02-02T10:43:10.138Z,73.13
2018-02-02T10:44:10.076Z,73.13
2018-02-02T10:46:02.884Z,73.13
2018-02-02T10:47:02.836Z,67.50
2018-02-02T10:48:54.668Z,61.88
2018-02-02T10:49:54.613Z,67.50
2018-02-02T10:51:46.596Z,61.88
2018-02-02T10:52:46.370Z,61.88
2018-02-02T10:54:38.184Z,61.88
2018-02-02T10:55:38.128Z,56.25
2018-02-02T10:57:29.941Z,56.25
2018-02-02T10:58:29.882Z,56.25
2018-02-02T11:01:59.704Z,56.25
2018-02-02T11:02:59.659Z,56.25
2018-02-02T11:04:51.545Z,56.25
2018-02-02T11:05:51.479Z,56.25
2018-02-02T11:07:43.336Z,56.25
2018-02-02T11:08:43.270Z,56.25
2018-02-02T11:10:35.152Z,56.25
2018-02-02T11:11:35.095Z,56.25
2018-02-02T11:13:26.934Z,61.88
2018-02-02T11:14:26.870Z,61.88
2018-02-02T11:16:18.682Z,61.88
2018-02-02T11:17:18.634Z,67.50
2018-02-02T11:19:10.461Z,56.25
2018-02-02T11:20:10.397Z,56.25
2018-02-02T11:22:02.202Z,73.13
2018-02-02T11:23:02.178Z,84.38
2018-02-02T11:24:54.144Z,67.50
2018-02-02T11:25:53.919Z,61.88
2018-02-02T11:27:45.765Z,61.88
2018-02-02T11:28:45.822Z,67.50
2018-02-02T11:30:37.550Z,61.88
2018-02-02T11:31:37.499Z,50.63
2018-02-02T11:33:30.554Z,56.25
2018-02-02T11:34:30.267Z,61.88
2018-02-02T11:36:22.094Z,61.88
2018-02-02T11:37:22.033Z,73.13
2018-02-02T11:39:13.844Z,61.88
2018-02-02T11:40:13.838Z,61.88
2018-02-02T11:42:05.863Z,78.75
2018-02-02T11:43:05.569Z,95.63
2018-02-02T11:44:57.373Z,73.13
2018-02-02T11:45:57.326Z,56.25
2018-02-02T11:47:49.158Z,78.75
2018-02-02T11:48:49.387Z,73.13
2018-02-02T11:50:40.910Z,73.13
2018-02-02T11:51:40.873Z,78.75
2018-02-02T11:53:33.677Z,78.75
2018-02-02T11:54:33.614Z,90.00
2018-02-02T11:56:25.429Z,84.38
2018-02-02T11:57:25.643Z,67.50
2018-02-02T11:59:17.200Z,95.63
2018-02-02T12:00:17.138Z,84.38
2018-02-02T12:02:09.965Z,73.13
2018-02-02T12:03:09.904Z,78.75
2018-02-02T12:05:01.732Z,73.13
2018-02-02T12:06:01.685Z,90.00
2018-02-02T12:07:54.508Z,73.13
2018-02-02T12:08:54.448Z,78.75
2018-02-02T12:10:46.263Z,84.38
2018-02-02T12:11:46.213Z,95.63
2018-02-02T12:13:38.036Z,106.88
2018-02-02T12:14:37.973Z,106.88
2018-02-02T12:16:29.780Z,84.38
2018-02-02T12:17:29.730Z,73.13
2018-02-02T12:19:21.557Z,56.25
2018-02-02T12:20:21.490Z,61.88
2018-02-02T12:22:13.458Z,56.25
2018-02-02T12:23:13.249Z,61.88
2018-02-02T12:25:05.070Z,56.25
2018-02-02T12:26:05.009Z,50.63
2018-02-02T12:27:56.824Z,78.75
2018-02-02T12:28:57.028Z,90.00
2018-02-02T12:30:48.587Z,84.38
2018-02-02T12:31:48.539Z,78.75
2018-02-02T12:33:40.342Z,95.63
2018-02-02T12:34:40.280Z,112.50
2018-02-02T12:36:32.102Z,106.88
2018-02-02T12:37:32.256Z,95.63
2018-02-02T12:39:23.863Z,101.25
2018-02-02T12:40:23.800Z,101.25
2018-02-02T12:42:15.622Z,95.63
2018-02-02T12:43:15.563Z,95.63
2018-02-02T12:45:07.641Z,90.00
2018-02-02T12:46:07.361Z,95.63
2018-02-02T12:47:59.181Z,95.63
2018-02-02T12:48:59.164Z,90.00
2018-02-02T12:50:50.977Z,78.75
2018-02-02T12:51:50.913Z,78.75
2018-02-02T12:53:42.714Z,73.13
2018-02-02T12:54:42.854Z,67.50
2018-02-02T12:56:34.489Z,56.25
2018-02-02T12:57:34.428Z,56.25
2018-02-02T12:59:26.228Z,56.25
2018-02-02T13:00:26.181Z,56.25
2018-02-02T13:02:18.019Z,56.25
2018-02-02T13:03:17.950Z,50.63
2018-02-02T13:05:09.773Z,50.63
2018-02-02T13:06:09.978Z,61.88
2018-02-02T13:08:01.541Z,67.50
2018-02-02T13:09:01.476Z,67.50
2018-02-02T13:10:53.284Z,67.50
2018-02-02T13:11:53.240Z,67.50
2018-02-02T13:13:46.056Z,73.13
2018-02-02T13:14:46.181Z,78.75
2018-02-02T13:16:37.801Z,78.75
2018-02-02T13:17:37.960Z,84.38
2018-02-02T13:19:30.825Z,78.75
2018-02-02T13:20:30.509Z,73.13
2018-02-02T13:22:22.327Z,67.50
2018-02-02T13:23:22.283Z,56.25
2018-02-02T13:25:14.103Z,56.25
2018-02-02T13:26:14.041Z,56.25
2018-02-02T13:28:05.846Z,50.63
2018-02-02T13:29:06.035Z,45.00
2018-02-02T13:30:58.615Z,39.38
2018-02-02T13:31:58.790Z,39.38
2018-02-02T13:33:50.358Z,33.75
2018-02-02T13:34:50.312Z,33.75
2018-02-02T13:36:42.129Z,39.38
2018-02-02T13:37:42.070Z,39.38
2018-02-02T13:39:33.891Z,45.00
2018-02-02T13:40:33.845Z,45.00
2018-02-02T13:42:25.665Z,45.00
2018-02-02T13:43:25.602Z,39.38
2018-02-02T13:45:17.646Z,33.75
2018-02-02T13:46:17.358Z,33.75
2018-02-02T13:48:09.182Z,33.75
2018-02-02T13:49:09.118Z,33.75
2018-02-02T13:51:00.972Z,33.75
2018-02-02T13:52:00.896Z,33.75
2018-02-02T13:53:52.753Z,33.75
2018-02-02T13:54:52.668Z,33.75
2018-02-02T13:56:44.490Z,33.75
2018-02-02T13:57:44.444Z,33.75
2018-02-02T13:59:36.263Z,33.75
2018-02-02T14:00:36.203Z,28.13
2018-02-02T14:02:28.016Z,33.75
2018-02-02T14:03:28.186Z,28.13
2018-02-02T14:05:19.783Z,28.13
2018-02-02T14:06:19.930Z,28.13
2018-02-02T14:08:11.533Z,28.13
2018-02-02T14:09:11.834Z,28.13
2018-02-02T14:11:03.299Z,33.75
2018-02-02T14:12:03.416Z,39.38
2018-02-02T14:13:55.040Z,45.00
2018-02-02T14:14:55.220Z,39.38
2018-02-02T14:16:47.814Z,33.75
2018-02-02T14:17:47.915Z,33.75
2018-02-02T14:19:39.553Z,33.75
2018-02-02T14:20:39.716Z,33.75
2018-02-02T14:22:31.326Z,33.75
2018-02-02T14:23:31.435Z,33.75
2018-02-02T14:25:23.066Z,33.75
2018-02-02T14:26:23.228Z,33.75
2018-02-02T14:28:14.834Z,39.38
2018-02-02T14:29:14.920Z,39.38
2018-02-02T14:31:06.578Z,39.38
2018-02-02T14:32:06.741Z,33.75
2018-02-02T14:33:58.351Z,33.75
2018-02-02T14:34:58.548Z,33.75
2018-02-02T14:36:50.096Z,28.13
2018-02-02T14:37:50.229Z,33.75
2018-02-02T14:39:41.866Z,33.75
2018-02-02T14:40:41.802Z,33.75
2018-02-02T14:42:33.615Z,33.75
2018-02-02T14:43:33.605Z,39.38
2018-02-02T14:45:26.405Z,39.38
2018-02-02T14:46:26.339Z,39.38
2018-02-02T14:48:18.160Z,39.38
2018-02-02T14:49:18.201Z,39.38
2018-02-02T14:51:09.953Z,33.75
2018-02-02T14:52:09.891Z,33.75
2018-02-02T14:54:01.706Z,28.13
2018-02-02T14:55:01.662Z,33.75
2018-02-02T14:56:53.489Z,33.75
2018-02-02T14:57:53.421Z,33.75
2018-02-02T14:59:46.235Z,33.75
2018-02-02T15:00:46.190Z,33.75
2018-02-02T15:02:38.026Z,28.13
2018-02-02T15:03:37.962Z,28.13
2018-02-02T15:05:29.777Z,28.13